createdAt,value
2022-07-26T00:00:12.567Z,16.23
2022-07-26T00:02:47.403Z,16.08
2022-07-26T00:05:16.136Z,16.10
2022-07-26T00:07:43.987Z,16.10
2022-07-26T00:10:11.595Z,16.33
2022-07-26T00:12:38.377Z,16.34
2022-07-26T00:15:08.320Z,16.56
2022-07-26T00:17:34.983Z,16.54
2022-07-26T00:20:42.368Z,16.64
2022-07-26T00:23:12.517Z,16.49
2022-07-26T00:25:39.142Z,16.27
2022-07-26T00:28:16.293Z,16.34
2022-07-26T00:30:43.333Z,16.25
2022-07-26T00:33:09.954Z,16.22
2022-07-26T00:35:36.765Z,16.27
2022-07-26T00:38:03.568Z,16.46
2022-07-26T00:40:30.658Z,16.45
2022-07-26T00:42:57.431Z,16.67
2022-07-26T00:45:24.380Z,16.73
2022-07-26T00:47:51.191Z,16.63
2022-07-26T00:50:19.585Z,16.64
2022-07-26T00:52:48.971Z,16.74
2022-07-26T00:55:16.864Z,16.50
2022-07-26T00:57:44.119Z,16.61
2022-07-26T01:00:17.715Z,16.59
2022-07-26T01:02:45.199Z,16.37
2022-07-26T01:05:12.052Z,16.26
2022-07-26T01:07:39.674Z,16.24
2022-07-26T01:10:12.088Z,16.01
2022-07-26T01:12:42.750Z,16.03
2022-07-26T01:15:13.810Z,16.08
2022-07-26T01:17:41.740Z,16.02
2022-07-26T01:20:10.997Z,15.83
2022-07-26T01:22:37.874Z,15.77
2022-07-26T01:25:05.469Z,15.84
2022-07-26T01:27:34.461Z,15.81
2022-07-26T01:30:01.164Z,15.85
2022-07-26T01:32:27.815Z,15.87
2022-07-26T01:34:54.619Z,15.82
2022-07-26T01:37:21.263Z,15.91
2022-07-26T01:39:47.889Z,15.61
2022-07-26T01:42:14.556Z,15.55
2022-07-26T01:44:41.215Z,15.50
2022-07-26T01:47:08.016Z,15.17
2022-07-26T01:49:34.751Z,15.26
2022-07-26T01:52:01.464Z,15.27
2022-07-26T01:54:28.141Z,15.25
2022-07-26T01:56:54.761Z,15.18
2022-07-26T01:59:21.394Z,15.03
2022-07-26T02:01:48.271Z,15.19
2022-07-26T02:04:33.292Z,15.12
2022-07-26T02:06:59.967Z,15.16
2022-07-26T02:09:26.648Z,15.31
2022-07-26T02:12:09.387Z,15.02
2022-07-26T02:14:36.052Z,15.10
2022-07-26T02:17:03.554Z,15.11
2022-07-26T02:19:30.519Z,15.10
2022-07-26T02:21:57.200Z,15.18
2022-07-26T02:24:24.530Z,15.13
2022-07-26T02:26:51.202Z,15.13
2022-07-26T02:29:17.856Z,15.00
2022-07-26T02:31:48.268Z,15.04
2022-07-26T02:34:16.568Z,15.15
2022-07-26T02:36:43.664Z,15.82
2022-07-26T02:39:10.433Z,16.16
2022-07-26T02:41:37.337Z,16.28
2022-07-26T02:44:05.188Z,16.44
2022-07-26T02:46:32.343Z,16.43
2022-07-26T02:49:00.862Z,16.33
2022-07-26T02:51:28.066Z,16.31
2022-07-26T02:53:54.826Z,16.32
2022-07-26T02:56:21.553Z,16.42
2022-07-26T02:58:48.205Z,16.43
2022-07-26T03:01:15.125Z,16.47
2022-07-26T03:03:43.123Z,16.59
2022-07-26T03:06:11.446Z,16.49
2022-07-26T03:08:53.816Z,16.62
2022-07-26T03:11:20.434Z,16.67
2022-07-26T03:13:47.057Z,16.73
2022-07-26T03:16:13.824Z,16.73
2022-07-26T03:18:40.570Z,16.80
2022-07-26T03:21:07.540Z,16.77
2022-07-26T03:23:35.037Z,16.72
2022-07-26T03:26:02.165Z,16.75
2022-07-26T03:28:33.202Z,16.78
2022-07-26T03:31:00.166Z,16.82
2022-07-26T03:33:26.932Z,16.70
2022-07-26T03:35:53.569Z,16.72
2022-07-26T03:38:21.488Z,16.77
2022-07-26T03:40:48.330Z,16.87
2022-07-26T03:43:14.940Z,16.67
2022-07-26T03:45:42.510Z,16.62
2022-07-26T03:48:09.394Z,16.74
2022-07-26T03:50:36.090Z,16.70
2022-07-26T03:53:02.962Z,16.62
2022-07-26T03:55:48.052Z,16.66
2022-07-26T03:58:14.793Z,16.70
2022-07-26T04:00:41.510Z,16.58
2022-07-26T04:03:08.600Z,16.48
2022-07-26T04:05:35.214Z,16.58
2022-07-26T04:08:03.283Z,16.40
2022-07-26T04:10:30.083Z,16.32
2022-07-26T04:13:02.281Z,16.28
2022-07-26T04:15:28.950Z,16.24
2022-07-26T04:17:55.564Z,16.35
2022-07-26T04:20:22.192Z,16.38
2022-07-26T04:22:48.836Z,16.38
2022-07-26T04:25:15.727Z,16.37
2022-07-26T04:27:42.425Z,16.34
2022-07-26T04:30:14.699Z,16.41
2022-07-26T04:32:42.072Z,16.41
2022-07-26T04:35:09.377Z,16.41
2022-07-26T04:37:40.455Z,16.34
2022-07-26T04:40:08.437Z,16.36
2022-07-26T04:42:35.646Z,16.35
2022-07-26T04:45:08.036Z,16.36
2022-07-26T04:47:35.557Z,16.33
2022-07-26T04:50:04.367Z,16.54
2022-07-26T04:52:30.991Z,16.61
2022-07-26T04:54:57.644Z,16.69
2022-07-26T04:57:24.280Z,16.69
2022-07-26T05:00:09.947Z,16.64
2022-07-26T05:02:37.966Z,16.70
2022-07-26T05:05:06.193Z,16.74
2022-07-26T05:07:41.043Z,16.90
2022-07-26T05:10:08.397Z,16.78
2022-07-26T05:12:35.057Z,16.84
2022-07-26T05:15:01.915Z,16.86
2022-07-26T05:17:31.474Z,16.92
2022-07-26T05:20:03.408Z,17.00
2022-07-26T05:22:30.279Z,17.15
2022-07-26T05:24:56.879Z,17.49
2022-07-26T05:27:23.621Z,17.45
2022-07-26T05:29:50.224Z,17.35
2022-07-26T05:32:16.845Z,17.39
2022-07-26T05:34:43.456Z,17.55
2022-07-26T05:37:10.464Z,17.64
2022-07-26T05:39:37.464Z,17.70
2022-07-26T05:42:04.283Z,17.60
2022-07-26T05:44:30.935Z,17.88
2022-07-26T05:46:57.632Z,18.99
2022-07-26T05:49:26.016Z,19.40
2022-07-26T05:51:54.252Z,19.67
2022-07-26T05:54:23.538Z,19.89
2022-07-26T05:56:50.182Z,19.99
2022-07-26T05:59:16.833Z,20.29
2022-07-26T06:01:43.453Z,20.40
2022-07-26T06:04:10.710Z,20.51
2022-07-26T06:06:37.687Z,20.62
2022-07-26T06:09:04.556Z,20.71
2022-07-26T06:11:31.275Z,20.99
2022-07-26T06:13:57.985Z,20.87
2022-07-26T06:16:24.620Z,20.92
2022-07-26T06:18:51.252Z,21.08
2022-07-26T06:21:17.855Z,21.11
2022-07-26T06:23:44.646Z,21.22
2022-07-26T06:26:12.243Z,21.32
2022-07-26T06:28:39.559Z,21.22
2022-07-26T06:31:06.191Z,21.29
2022-07-26T06:33:32.779Z,21.41
2022-07-26T06:35:59.495Z,21.37
2022-07-26T06:38:26.240Z,21.49
2022-07-26T06:40:53.177Z,21.61
2022-07-26T06:43:20.753Z,21.67
2022-07-26T06:45:47.461Z,21.75
2022-07-26T06:48:14.408Z,21.89
2022-07-26T06:50:41.381Z,21.08
2022-07-26T06:53:07.986Z,21.55
2022-07-26T06:55:34.664Z,21.57
2022-07-26T06:58:01.293Z,21.40
2022-07-26T07:00:27.967Z,21.33
2022-07-26T07:02:54.557Z,21.51
2022-07-26T07:05:21.283Z,21.70
2022-07-26T07:07:47.890Z,21.51
2022-07-26T07:10:14.803Z,21.31
2022-07-26T07:12:51.913Z,21.42
2022-07-26T07:15:18.620Z,21.63
2022-07-26T07:17:45.251Z,21.61
2022-07-26T07:20:12.304Z,21.84
2022-07-26T07:22:38.963Z,22.01
2022-07-26T07:25:06.353Z,21.95
2022-07-26T07:27:33.323Z,22.02
2022-07-26T07:30:00.136Z,22.14
2022-07-26T07:32:26.792Z,21.99
2022-07-26T07:34:55.329Z,21.88
2022-07-26T07:37:21.970Z,21.99
2022-07-26T07:39:50.589Z,21.92
2022-07-26T07:42:18.199Z,22.01
2022-07-26T07:44:44.799Z,22.07
2022-07-26T07:47:11.992Z,22.20
2022-07-26T07:49:38.839Z,22.49
2022-07-26T07:52:05.701Z,22.86
2022-07-26T07:54:32.364Z,23.53
2022-07-26T07:56:59.090Z,23.47
2022-07-26T07:59:25.760Z,22.43
2022-07-26T08:01:52.561Z,21.65
2022-07-26T08:04:19.393Z,21.54
2022-07-26T08:06:50.225Z,21.68
2022-07-26T08:09:18.831Z,22.18
2022-07-26T08:11:45.803Z,22.69
2022-07-26T08:14:18.481Z,21.84
2022-07-26T08:16:45.296Z,22.81
2022-07-26T08:19:12.240Z,22.22
2022-07-26T08:21:39.071Z,22.82
2022-07-26T08:24:06.932Z,21.91
2022-07-26T08:26:33.561Z,21.42
2022-07-26T08:29:00.618Z,21.45
2022-07-26T08:31:28.757Z,21.92
2022-07-26T08:33:55.898Z,22.23
2022-07-26T08:36:23.092Z,22.71
2022-07-26T08:38:49.695Z,23.59
2022-07-26T08:41:17.895Z,24.27
2022-07-26T08:43:51.864Z,23.14
2022-07-26T08:46:25.307Z,22.26
2022-07-26T08:48:54.069Z,21.98
2022-07-26T08:51:23.323Z,23.16
2022-07-26T08:53:53.009Z,24.20
2022-07-26T08:56:19.774Z,24.96
2022-07-26T08:58:46.350Z,24.09
2022-07-26T09:01:13.739Z,23.92
2022-07-26T09:03:45.657Z,24.28
2022-07-26T09:06:17.217Z,24.20
2022-07-26T09:08:45.423Z,25.24
2022-07-26T09:11:24.097Z,24.52
2022-07-26T09:13:52.959Z,24.07
2022-07-26T09:16:19.627Z,25.03
2022-07-26T09:18:46.576Z,24.24
2022-07-26T09:21:34.265Z,24.01
2022-07-26T09:24:00.972Z,23.48
2022-07-26T09:26:28.337Z,22.89
2022-07-26T09:29:03.883Z,22.81
2022-07-26T09:31:30.571Z,24.31
2022-07-26T09:33:58.908Z,24.15
2022-07-26T09:36:26.608Z,23.74
2022-07-26T09:38:55.456Z,23.63
2022-07-26T09:41:35.124Z,23.78
2022-07-26T09:44:04.204Z,24.13
2022-07-26T09:46:32.463Z,24.05
2022-07-26T09:49:16.995Z,23.68
2022-07-26T09:51:46.373Z,24.84
2022-07-26T09:54:36.933Z,23.96
2022-07-26T09:57:03.710Z,23.10
2022-07-26T09:59:30.748Z,22.89
2022-07-26T10:02:00.205Z,23.38
2022-07-26T10:04:27.466Z,24.94
2022-07-26T10:06:54.942Z,23.94
2022-07-26T10:09:25.631Z,24.44
2022-07-26T10:12:00.845Z,23.63
2022-07-26T10:14:33.328Z,24.49
2022-07-26T10:17:01.753Z,24.00
2022-07-26T10:19:47.631Z,23.51
2022-07-26T10:22:23.492Z,22.86
2022-07-26T10:24:57.382Z,22.61
2022-07-26T10:27:41.241Z,22.49
2022-07-26T10:30:20.012Z,22.87
2022-07-26T10:33:13.810Z,24.70
2022-07-26T10:35:44.416Z,23.45
2022-07-26T10:38:13.156Z,23.24
2022-07-26T10:41:03.419Z,23.30
2022-07-26T10:43:40.671Z,24.43
2022-07-26T10:46:20.436Z,24.90
2022-07-26T10:48:57.580Z,25.83
2022-07-26T10:51:32.707Z,25.35
2022-07-26T10:54:10.834Z,25.02
2022-07-26T10:56:38.212Z,24.72
2022-07-26T10:59:06.286Z,24.36
2022-07-26T11:01:38.064Z,24.25
2022-07-26T11:04:06.041Z,23.89
2022-07-26T11:06:32.995Z,23.88
2022-07-26T11:09:10.390Z,25.09
2022-07-26T11:11:36.985Z,26.01
2022-07-26T11:14:08.797Z,26.16
2022-07-26T11:16:44.391Z,25.20
2022-07-26T11:19:26.053Z,25.37
2022-07-26T11:21:58.993Z,25.24
2022-07-26T11:24:27.053Z,25.69
2022-07-26T11:26:54.634Z,26.36
2022-07-26T11:29:38.061Z,26.90
2022-07-26T11:32:14.773Z,26.74
2022-07-26T11:34:45.327Z,25.20
2022-07-26T11:37:12.348Z,24.80
2022-07-26T11:39:38.979Z,24.37
2022-07-26T11:42:08.446Z,24.16
2022-07-26T11:44:36.037Z,24.04
2022-07-26T11:47:24.516Z,24.60
2022-07-26T11:52:40.214Z,24.43
2022-07-26T11:55:07.363Z,25.14
2022-07-26T11:57:34.007Z,25.85
2022-07-26T12:00:01.452Z,25.19
2022-07-26T12:02:38.270Z,25.20
2022-07-26T12:05:21.549Z,24.24
2022-07-26T12:08:03.943Z,24.01
2022-07-26T12:10:30.725Z,23.85
2022-07-26T12:13:08.061Z,24.97
2022-07-26T12:15:49.667Z,24.66
2022-07-26T12:18:27.937Z,25.43
2022-07-26T12:21:09.130Z,25.84
2022-07-26T12:23:50.079Z,26.34
2022-07-26T12:26:23.166Z,26.80
2022-07-26T12:28:49.837Z,26.65
2022-07-26T12:31:46.251Z,25.32
2022-07-26T12:34:19.730Z,24.46
2022-07-26T12:36:46.348Z,23.92
2022-07-26T12:39:22.509Z,23.71
2022-07-26T12:41:50.554Z,23.64
2022-07-26T12:44:17.512Z,23.66
2022-07-26T12:46:47.376Z,23.70
2022-07-26T12:49:14.199Z,23.63
2022-07-26T12:51:41.314Z,23.52
2022-07-26T12:54:09.030Z,23.39
2022-07-26T12:56:35.865Z,23.61
2022-07-26T12:59:02.693Z,24.18
2022-07-26T13:01:31.423Z,23.77
2022-07-26T13:03:58.407Z,23.23
2022-07-26T13:06:25.026Z,22.86
2022-07-26T13:08:51.643Z,22.65
2022-07-26T13:11:18.257Z,22.61
2022-07-26T13:13:44.924Z,22.55
2022-07-26T13:16:12.531Z,22.63
2022-07-26T13:18:39.536Z,22.27
2022-07-26T13:21:06.365Z,21.91
2022-07-26T13:23:34.924Z,21.58
2022-07-26T13:26:02.698Z,21.60
2022-07-26T13:28:30.131Z,21.68
2022-07-26T13:30:56.798Z,21.84
2022-07-26T13:33:23.550Z,22.04
2022-07-26T13:35:50.497Z,22.05
2022-07-26T13:38:19.614Z,21.98
2022-07-26T13:40:46.356Z,22.02
2022-07-26T13:43:13.151Z,22.15
2022-07-26T13:45:39.791Z,22.37
2022-07-26T13:48:07.113Z,22.61
2022-07-26T13:50:33.858Z,22.87
2022-07-26T13:53:00.484Z,23.25
2022-07-26T13:55:27.161Z,23.65
2022-07-26T13:57:57.069Z,24.16
2022-07-26T14:00:26.201Z,23.96
2022-07-26T14:02:53.430Z,24.03
2022-07-26T14:05:20.385Z,23.94
2022-07-26T14:07:47.010Z,23.80
2022-07-26T14:10:13.838Z,23.96
2022-07-26T14:12:40.838Z,24.02
2022-07-26T14:15:15.444Z,24.08
2022-07-26T14:17:45.530Z,24.20
2022-07-26T14:20:12.870Z,24.42
2022-07-26T14:22:39.537Z,24.13
2022-07-26T14:25:07.262Z,23.96
2022-07-26T14:27:33.876Z,23.86
2022-07-26T14:30:00.471Z,24.03
2022-07-26T14:32:27.252Z,24.05
2022-07-26T14:34:53.901Z,24.18
2022-07-26T14:37:43.762Z,24.25
2022-07-26T14:40:07.888Z,24.04
2022-07-26T14:42:34.518Z,23.99
2022-07-26T14:45:01.160Z,24.13
2022-07-26T14:47:27.777Z,23.75
2022-07-26T14:49:54.392Z,23.34
2022-07-26T14:52:21.073Z,23.51
2022-07-26T14:54:47.711Z,23.70
2022-07-26T14:57:14.315Z,24.22
2022-07-26T14:59:40.936Z,23.91
2022-07-26T15:02:08.821Z,24.13
2022-07-26T15:04:35.518Z,24.32
2022-07-26T15:07:02.141Z,23.74
2022-07-26T15:09:28.777Z,22.85
2022-07-26T15:12:00.379Z,22.89
2022-07-26T15:14:27.003Z,22.96
2022-07-26T15:16:53.711Z,22.86
2022-07-26T15:19:25.364Z,22.95
2022-07-26T15:21:54.271Z,22.97
2022-07-26T15:24:23.627Z,22.87
2022-07-26T15:26:51.091Z,22.94
2022-07-26T15:29:17.685Z,22.66
2022-07-26T15:31:44.669Z,22.77
2022-07-26T15:34:11.925Z,22.93
2022-07-26T15:36:38.889Z,22.95
2022-07-26T15:39:16.626Z,23.06
2022-07-26T15:41:45.499Z,22.63
2022-07-26T15:44:12.490Z,22.54
2022-07-26T15:46:39.691Z,22.54
2022-07-26T15:49:07.414Z,22.57
2022-07-26T15:51:34.563Z,22.29
2022-07-26T15:54:03.115Z,22.23
2022-07-26T15:56:29.907Z,22.26
2022-07-26T15:58:56.583Z,22.10
2022-07-26T16:01:23.497Z,22.15
2022-07-26T16:03:50.255Z,22.17
2022-07-26T16:06:17.183Z,22.26
2022-07-26T16:09:05.782Z,22.27
2022-07-26T16:11:31.428Z,22.15
2022-07-26T16:14:01.366Z,22.12
2022-07-26T16:16:30.458Z,22.05
2022-07-26T16:18:57.299Z,22.06
2022-07-26T16:21:24.447Z,21.93
2022-07-26T16:23:51.272Z,21.91
2022-07-26T16:26:18.451Z,22.03
2022-07-26T16:28:45.061Z,22.00
2022-07-26T16:31:12.813Z,21.97
2022-07-26T16:33:46.096Z,21.86
2022-07-26T16:36:14.224Z,21.65
2022-07-26T16:38:41.182Z,21.39
2022-07-26T16:41:07.962Z,21.31
2022-07-26T16:43:35.375Z,21.30
2022-07-26T16:46:02.268Z,21.38
2022-07-26T16:48:29.011Z,21.38
2022-07-26T16:50:55.829Z,21.33
2022-07-26T16:53:22.458Z,21.30
2022-07-26T16:55:51.795Z,21.21
2022-07-26T16:58:19.353Z,21.19
2022-07-26T17:00:46.948Z,21.11
2022-07-26T17:03:15.720Z,21.04
2022-07-26T17:05:44.585Z,20.99
2022-07-26T17:08:11.279Z,20.89
2022-07-26T17:10:38.424Z,20.84
2022-07-26T17:13:10.157Z,20.78
2022-07-26T17:15:37.162Z,20.81
2022-07-26T17:18:04.181Z,20.76
2022-07-26T17:20:30.802Z,20.75
2022-07-26T17:22:57.536Z,20.69
2022-07-26T17:25:24.153Z,20.63
2022-07-26T17:27:51.224Z,20.62
2022-07-26T17:30:18.044Z,20.55
2022-07-26T17:32:44.686Z,20.53
2022-07-26T17:35:11.355Z,20.53
2022-07-26T17:37:38.033Z,20.53
2022-07-26T17:40:08.087Z,20.46
2022-07-26T17:42:35.463Z,20.47
2022-07-26T17:45:02.540Z,20.48
2022-07-26T17:47:30.508Z,20.37
2022-07-26T17:50:37.677Z,20.27
2022-07-26T17:52:50.657Z,20.09
2022-07-26T17:55:21.230Z,20.03
2022-07-26T17:57:49.715Z,19.92
2022-07-26T18:00:21.545Z,19.87
2022-07-26T18:02:48.971Z,19.76
2022-07-26T18:05:16.640Z,19.83
2022-07-26T18:07:43.765Z,19.75
2022-07-26T18:10:11.813Z,19.71
2022-07-26T18:12:38.982Z,19.71
2022-07-26T18:15:08.219Z,19.70
2022-07-26T18:17:35.721Z,19.68
2022-07-26T18:20:04.049Z,19.66
2022-07-26T18:22:31.704Z,19.73
2022-07-26T18:24:58.971Z,19.67
2022-07-26T18:27:28.451Z,19.55
2022-07-26T18:29:56.918Z,19.47
2022-07-26T18:32:24.675Z,19.42
2022-07-26T18:34:52.676Z,19.42
2022-07-26T18:37:21.161Z,19.37
2022-07-26T18:39:55.426Z,19.31
2022-07-26T18:42:24.481Z,19.22
2022-07-26T18:44:51.653Z,19.19
2022-07-26T18:47:18.554Z,19.25
2022-07-26T18:49:45.667Z,19.14
2022-07-26T18:52:12.743Z,19.08
2022-07-26T18:54:40.245Z,19.03
2022-07-26T18:57:07.308Z,18.98
2022-07-26T18:59:34.615Z,18.90
2022-07-26T19:02:01.685Z,18.90
2022-07-26T19:04:29.205Z,18.88
2022-07-26T19:06:56.549Z,18.86
2022-07-26T19:09:23.376Z,18.88
2022-07-26T19:11:50.146Z,18.90
2022-07-26T19:14:16.786Z,18.85
2022-07-26T19:16:43.813Z,18.85
2022-07-26T19:19:11.169Z,18.82
2022-07-26T19:21:40.195Z,18.81
2022-07-26T19:24:07.702Z,18.80
2022-07-26T19:26:35.997Z,18.73
2022-07-26T19:29:03.087Z,18.74
2022-07-26T19:31:30.239Z,18.76
2022-07-26T19:33:57.446Z,18.73
2022-07-26T19:36:25.383Z,18.66
2022-07-26T19:38:56.811Z,18.54
2022-07-26T19:41:24.224Z,18.51
2022-07-26T19:43:51.007Z,18.51
2022-07-26T19:46:18.193Z,18.49
2022-07-26T19:48:45.313Z,18.50
2022-07-26T19:51:12.244Z,18.41
2022-07-26T19:53:39.150Z,18.44
2022-07-26T19:56:07.127Z,18.39
2022-07-26T19:58:34.169Z,18.40
2022-07-26T20:01:01.613Z,18.33
2022-07-26T20:03:28.554Z,18.32
2022-07-26T20:05:56.883Z,18.29
2022-07-26T20:08:24.781Z,18.28
2022-07-26T20:10:51.673Z,18.30
2022-07-26T20:13:18.653Z,18.24
2022-07-26T20:15:47.435Z,18.29
2022-07-26T20:18:14.397Z,18.23
2022-07-26T20:20:41.406Z,18.12
2022-07-26T20:23:11.167Z,18.15
2022-07-26T20:25:38.247Z,18.16
2022-07-26T20:28:05.407Z,18.14
2022-07-26T20:30:32.360Z,18.15
2022-07-26T20:32:59.014Z,18.14
2022-07-26T20:35:25.675Z,18.09
2022-07-26T20:37:52.256Z,18.04
2022-07-26T20:40:18.968Z,18.10
2022-07-26T20:42:47.656Z,18.06
2022-07-26T20:45:17.052Z,18.03
2022-07-26T20:47:44.116Z,18.02
2022-07-26T20:50:11.877Z,18.02
2022-07-26T20:52:38.980Z,17.97
2022-07-26T20:55:06.279Z,17.93
2022-07-26T20:57:33.034Z,17.93
2022-07-26T20:59:59.664Z,17.88
2022-07-26T21:02:26.661Z,17.77
2022-07-26T21:04:53.482Z,17.73
2022-07-26T21:07:20.105Z,17.67
2022-07-26T21:09:46.762Z,17.66
2022-07-26T21:12:13.409Z,17.64
2022-07-26T21:14:39.977Z,17.51
2022-07-26T21:17:11.340Z,17.49
2022-07-26T21:19:39.093Z,17.44
2022-07-26T21:22:05.793Z,17.40
2022-07-26T21:24:32.839Z,17.41
2022-07-26T21:26:59.547Z,17.39
2022-07-26T21:29:26.264Z,17.38
2022-07-26T21:31:53.122Z,17.40
2022-07-26T21:34:19.868Z,17.33
2022-07-26T21:36:46.791Z,17.35
2022-07-26T21:39:14.010Z,17.36
2022-07-26T21:41:41.076Z,17.39
2022-07-26T21:44:07.788Z,17.40
2022-07-26T21:46:34.510Z,17.41
2022-07-26T21:49:01.295Z,17.39
2022-07-26T21:51:27.927Z,17.40
2022-07-26T21:53:54.858Z,17.41
2022-07-26T21:56:21.762Z,17.38
2022-07-26T21:58:48.406Z,17.35
2022-07-26T22:01:15.204Z,17.37
2022-07-26T22:03:42.533Z,17.45
2022-07-26T22:06:10.140Z,17.41
2022-07-26T22:08:37.587Z,17.40
2022-07-26T22:11:04.619Z,17.34
2022-07-26T22:13:31.490Z,17.25
2022-07-26T22:15:58.128Z,17.19
2022-07-26T22:18:24.948Z,17.31
2022-07-26T22:20:51.733Z,17.37
2022-07-26T22:23:18.970Z,17.23
2022-07-26T22:25:46.159Z,17.12
2022-07-26T22:28:18.540Z,17.11
2022-07-26T22:30:46.209Z,17.08
2022-07-26T22:33:13.058Z,17.07
2022-07-26T22:35:39.775Z,17.02
2022-07-26T22:38:08.939Z,17.03
2022-07-26T22:40:37.084Z,16.99
2022-07-26T22:43:03.985Z,16.97
2022-07-26T22:45:31.369Z,16.94
2022-07-26T22:47:58.456Z,16.94
2022-07-26T22:50:25.737Z,16.92
2022-07-26T22:52:52.699Z,16.98
2022-07-26T22:55:19.788Z,16.96
2022-07-26T22:57:46.835Z,16.96
2022-07-26T23:00:18.920Z,16.83
2022-07-26T23:02:46.100Z,16.88
2022-07-26T23:05:14.948Z,16.90
2022-07-26T23:07:42.130Z,16.85
2022-07-26T23:10:13.050Z,16.80
2022-07-26T23:12:54.782Z,16.78
2022-07-26T23:15:21.400Z,16.66
2022-07-26T23:17:48.034Z,16.63
2022-07-26T23:20:14.731Z,16.60
2022-07-26T23:22:43.332Z,16.69
2022-07-26T23:25:10.200Z,16.64
2022-07-26T23:27:36.828Z,16.56
2022-07-26T23:30:03.818Z,16.55
2022-07-26T23:32:30.454Z,16.57
2022-07-26T23:34:57.162Z,16.58
2022-07-26T23:37:23.805Z,16.56
2022-07-26T23:39:50.425Z,16.45
2022-07-26T23:42:17.147Z,16.40
2022-07-26T23:44:43.764Z,16.40
2022-07-26T23:47:10.476Z,16.41
2022-07-26T23:49:37.096Z,16.38
2022-07-26T23:52:03.945Z,16.29
2022-07-26T23:54:30.589Z,16.18
2022-07-26T23:56:57.341Z,16.22
2022-07-26T23:59:24.001Z,16.24
